createdAt,value
2022-09-26T00:00:09.757Z,18.38
2022-09-26T00:03:14.077Z,17.90
2022-09-26T00:06:18.912Z,17.45
2022-09-26T00:09:25.045Z,19.80
2022-09-26T00:12:29.188Z,15.88
2022-09-26T00:15:33.301Z,18.35
2022-09-26T00:18:37.345Z,15.90
2022-09-26T00:21:41.493Z,15.65
2022-09-26T00:24:45.525Z,17.50
2022-09-26T00:27:49.526Z,15.48
2022-09-26T00:30:54.660Z,14.77
2022-09-26T00:33:59.116Z,16.13
2022-09-26T00:37:03.184Z,16.42
2022-09-26T00:40:08.071Z,14.27
2022-09-26T00:43:33.700Z,14.80
2022-09-26T00:46:41.634Z,20.55
2022-09-26T00:49:48.294Z,15.35
2022-09-26T00:52:56.500Z,15.55
2022-09-26T00:56:06.204Z,17.10
2022-09-26T00:59:24.674Z,13.98
2022-09-26T01:02:28.727Z,17.75
2022-09-26T01:05:33.961Z,17.83
2022-09-26T01:08:51.112Z,16.50
2022-09-26T01:11:55.440Z,15.48
2022-09-26T01:14:59.726Z,17.30
2022-09-26T01:18:04.004Z,17.73
2022-09-26T01:21:45.534Z,16.83
2022-09-26T01:25:26.694Z,16.80
2022-09-26T01:28:36.958Z,16.60
2022-09-26T01:32:06.697Z,17.02
2022-09-26T01:35:21.155Z,15.15
2022-09-26T01:38:35.685Z,16.83
2022-09-26T01:41:47.346Z,15.68
2022-09-26T01:45:05.018Z,15.85
2022-09-26T01:48:18.543Z,17.77
2022-09-26T01:54:41.873Z,15.15
2022-09-26T01:57:55.072Z,17.83
2022-09-26T02:01:02.983Z,16.23
2022-09-26T02:04:10.806Z,19.13
2022-09-26T02:07:20.645Z,16.95
2022-09-26T02:10:42.493Z,17.67
2022-09-26T02:13:55.574Z,18.55
2022-09-26T02:17:13.024Z,23.90
2022-09-26T02:20:28.850Z,19.65
2022-09-26T02:23:32.967Z,18.67
2022-09-26T02:26:37.378Z,22.13
2022-09-26T02:29:43.633Z,20.10
2022-09-26T02:32:48.256Z,18.10
2022-09-26T02:35:55.236Z,22.88
2022-09-26T02:38:59.627Z,21.33
2022-09-26T02:42:22.034Z,16.50
2022-09-26T02:45:42.309Z,21.98
2022-09-26T02:49:21.623Z,19.55
2022-09-26T02:52:53.740Z,18.85
2022-09-26T02:56:10.838Z,20.20
2022-09-26T02:59:35.902Z,18.77
2022-09-26T03:03:23.599Z,17.25
2022-09-26T03:06:35.031Z,20.13
2022-09-26T03:09:41.757Z,19.27
2022-09-26T03:12:45.904Z,16.83
2022-09-26T03:15:54.890Z,18.08
2022-09-26T03:19:05.747Z,17.33
2022-09-26T03:22:09.801Z,18.40
2022-09-26T03:25:18.523Z,17.92
2022-09-26T03:28:22.879Z,18.40
2022-09-26T03:31:27.144Z,15.63
2022-09-26T03:34:31.508Z,16.98
2022-09-26T03:37:37.357Z,18.50
2022-09-26T03:40:42.584Z,14.23
2022-09-26T03:43:46.446Z,18.52
2022-09-26T03:46:50.200Z,15.02
2022-09-26T03:49:54.559Z,15.88
2022-09-26T03:52:58.653Z,17.23
2022-09-26T03:56:11.435Z,21.35
2022-09-26T03:59:15.606Z,19.85
2022-09-26T04:02:20.812Z,15.90
2022-09-26T04:05:24.602Z,15.02
2022-09-26T04:08:28.787Z,17.38
2022-09-26T04:11:32.879Z,15.15
2022-09-26T04:14:37.310Z,18.05
2022-09-26T04:17:41.625Z,15.57
2022-09-26T04:20:45.640Z,15.90
2022-09-26T04:23:50.285Z,17.30
2022-09-26T04:26:54.352Z,16.00
2022-09-26T04:29:58.527Z,14.32
2022-09-26T04:33:02.586Z,19.27
2022-09-26T04:36:12.090Z,15.02
2022-09-26T04:39:15.951Z,17.35
2022-09-26T04:42:19.727Z,18.00
2022-09-26T04:45:23.622Z,17.50
2022-09-26T04:48:28.629Z,13.68
2022-09-26T04:51:32.814Z,15.57
2022-09-26T04:54:37.402Z,17.02
2022-09-26T04:57:41.136Z,15.00
2022-09-26T05:00:47.662Z,13.85
2022-09-26T05:03:52.045Z,15.55
2022-09-26T05:06:57.584Z,14.55
2022-09-26T05:10:01.530Z,20.27
2022-09-26T05:13:06.059Z,17.88
2022-09-26T05:16:11.478Z,15.38
2022-09-26T05:19:15.418Z,15.13
2022-09-26T05:22:19.640Z,15.75
2022-09-26T05:25:42.779Z,15.43
2022-09-26T05:28:53.839Z,15.85
2022-09-26T05:31:57.751Z,14.40
2022-09-26T05:35:05.255Z,15.63
2022-09-26T05:38:09.471Z,14.45
2022-09-26T05:41:14.250Z,15.90
2022-09-26T05:44:18.329Z,14.93
2022-09-26T05:47:23.109Z,14.48
2022-09-26T05:50:27.228Z,25.77
2022-09-26T05:53:34.559Z,18.40
2022-09-26T05:56:39.000Z,16.25
2022-09-26T05:59:43.009Z,14.63
2022-09-26T06:02:54.360Z,16.42
2022-09-26T06:06:01.676Z,12.20
2022-09-26T06:09:07.550Z,13.02
2022-09-26T06:12:11.522Z,11.48
2022-09-26T06:15:15.817Z,15.30
2022-09-26T06:18:19.798Z,12.82
2022-09-26T06:21:24.107Z,12.40
2022-09-26T06:24:27.918Z,12.65
2022-09-26T06:27:36.208Z,10.55
2022-09-26T06:30:40.078Z,9.15
2022-09-26T06:33:49.938Z,11.40
2022-09-26T06:36:53.952Z,10.95
2022-09-26T06:39:59.544Z,11.82
2022-09-26T06:43:04.072Z,14.35
2022-09-26T06:46:09.533Z,13.38
2022-09-26T06:49:13.583Z,14.18
2022-09-26T06:52:17.596Z,9.43
2022-09-26T06:55:22.439Z,9.27
2022-09-26T06:58:27.708Z,8.77
2022-09-26T07:01:32.957Z,14.85
2022-09-26T07:04:36.935Z,10.52
2022-09-26T07:07:46.659Z,15.57
2022-09-26T07:10:51.617Z,12.10
2022-09-26T07:13:55.703Z,9.15
2022-09-26T07:16:59.620Z,11.88
2022-09-26T07:20:04.009Z,9.50
2022-09-26T07:23:10.596Z,9.95
2022-09-26T07:26:15.053Z,23.75
2022-09-26T07:29:19.437Z,13.48
2022-09-26T07:32:24.242Z,10.77
2022-09-26T07:35:28.731Z,12.45
2022-09-26T07:38:32.512Z,13.48
2022-09-26T07:41:36.724Z,8.27
2022-09-26T07:45:17.481Z,8.80
2022-09-26T07:48:23.243Z,9.68
2022-09-26T07:51:27.582Z,10.20
2022-09-26T07:54:32.197Z,9.13
2022-09-26T07:57:35.980Z,8.15
2022-09-26T08:00:40.275Z,11.57
2022-09-26T08:03:48.084Z,10.13
2022-09-26T08:06:53.544Z,7.47
2022-09-26T08:09:58.993Z,12.27
2022-09-26T08:13:03.371Z,11.60
2022-09-26T08:16:07.609Z,9.50
2022-09-26T08:19:17.483Z,7.20
2022-09-26T08:22:21.687Z,6.55
2022-09-26T08:25:26.035Z,10.85
2022-09-26T08:28:30.396Z,6.88
2022-09-26T08:31:35.071Z,11.45
2022-09-26T08:34:40.900Z,11.63
2022-09-26T08:37:44.897Z,9.60
2022-09-26T08:40:56.260Z,6.43
2022-09-26T08:44:38.161Z,6.25
2022-09-26T08:47:50.425Z,7.90
2022-09-26T08:51:07.012Z,7.78
2022-09-26T08:54:14.699Z,8.45
2022-09-26T08:57:38.132Z,11.25
2022-09-26T09:00:42.358Z,7.03
2022-09-26T09:03:55.346Z,6.43
2022-09-26T09:07:10.741Z,10.90
2022-09-26T09:10:22.741Z,9.50
2022-09-26T09:13:46.035Z,6.22
2022-09-26T09:16:57.990Z,7.22
2022-09-26T09:20:37.644Z,9.25
2022-09-26T09:24:00.518Z,11.07
2022-09-26T09:31:06.596Z,5.20
2022-09-26T09:34:21.052Z,6.30
2022-09-26T09:37:33.513Z,9.07
2022-09-26T09:40:43.272Z,5.25
2022-09-26T09:43:48.416Z,9.82
2022-09-26T09:46:52.517Z,9.63
2022-09-26T09:49:57.611Z,5.15
2022-09-26T09:53:31.969Z,8.20
2022-09-26T09:57:11.177Z,5.60
2022-09-26T10:00:24.001Z,7.70
2022-09-26T10:03:47.805Z,10.27
2022-09-26T10:06:52.579Z,4.55
2022-09-26T10:09:56.964Z,7.00
2022-09-26T10:13:01.204Z,9.68
2022-09-26T10:16:07.386Z,7.28
2022-09-26T10:19:12.315Z,7.90
2022-09-26T10:22:44.037Z,5.45
2022-09-26T10:25:50.348Z,9.82
2022-09-26T10:28:55.931Z,7.40
2022-09-26T10:32:00.691Z,7.28
2022-09-26T10:35:19.865Z,6.25
2022-09-26T10:38:27.769Z,6.32
2022-09-26T10:41:39.416Z,7.38
2022-09-26T10:44:43.213Z,10.93
2022-09-26T10:47:51.892Z,4.05
2022-09-26T10:51:00.624Z,5.45
2022-09-26T10:54:11.601Z,6.35
2022-09-26T10:57:23.108Z,4.43
2022-09-26T11:00:42.827Z,5.82
2022-09-26T11:03:47.391Z,6.57
2022-09-26T11:06:51.501Z,7.15
2022-09-26T11:10:02.947Z,5.97
2022-09-26T11:13:19.306Z,8.02
2022-09-26T11:16:24.001Z,4.55
2022-09-26T11:19:31.558Z,7.82
2022-09-26T11:22:47.434Z,9.52
2022-09-26T11:26:09.451Z,6.55
2022-09-26T11:29:36.658Z,8.98
2022-09-26T11:32:44.880Z,9.70
2022-09-26T11:35:58.245Z,7.82
2022-09-26T11:42:56.145Z,6.85
2022-09-26T11:46:21.927Z,5.72
2022-09-26T11:50:01.659Z,6.47
2022-09-26T11:53:34.862Z,5.82
2022-09-26T11:57:02.136Z,7.25
2022-09-26T12:00:26.561Z,7.28
2022-09-26T12:03:50.106Z,5.05
2022-09-26T12:07:07.404Z,7.03
2022-09-26T12:10:20.554Z,3.95
2022-09-26T12:16:55.134Z,4.72
2022-09-26T12:20:33.618Z,5.55
2022-09-26T12:23:45.564Z,4.03
2022-09-26T12:27:06.783Z,4.30
2022-09-26T12:30:15.903Z,6.00
2022-09-26T12:34:02.372Z,5.28
2022-09-26T12:37:42.687Z,5.80
2022-09-26T12:41:04.220Z,4.38
2022-09-26T12:44:41.117Z,4.85
2022-09-26T12:48:08.128Z,5.47
2022-09-26T12:51:38.208Z,3.63
2022-09-26T12:54:57.319Z,9.23
2022-09-26T12:58:19.328Z,4.97
2022-09-26T13:01:53.496Z,3.50
2022-09-26T13:05:41.800Z,5.35
2022-09-26T13:09:04.462Z,4.22
2022-09-26T13:12:46.044Z,6.40
2022-09-26T13:16:05.050Z,9.23
2022-09-26T13:19:33.033Z,5.07
2022-09-26T13:22:52.493Z,7.10
2022-09-26T13:26:09.868Z,3.80
2022-09-26T13:29:27.961Z,5.03
2022-09-26T13:32:47.678Z,8.75
2022-09-26T13:35:56.235Z,4.85
2022-09-26T13:39:07.955Z,8.57
2022-09-26T13:42:28.440Z,6.28
2022-09-26T13:45:49.014Z,4.53
2022-09-26T13:49:17.621Z,4.15
2022-09-26T13:52:52.542Z,4.05
2022-09-26T13:56:30.262Z,6.68
2022-09-26T13:59:51.489Z,4.18
2022-09-26T14:03:10.876Z,5.05
2022-09-26T14:06:28.193Z,4.65
2022-09-26T14:09:52.586Z,10.05
2022-09-26T14:13:34.225Z,6.45
2022-09-26T14:16:38.358Z,9.30
2022-09-26T14:19:48.673Z,6.13
2022-09-26T14:22:57.701Z,5.85
2022-09-26T14:26:10.613Z,3.60
2022-09-26T14:29:29.870Z,4.50
2022-09-26T14:32:45.054Z,4.35
2022-09-26T14:35:48.935Z,5.97
2022-09-26T14:38:54.654Z,6.00
2022-09-26T14:42:07.992Z,9.20
2022-09-26T14:45:41.380Z,3.70
2022-09-26T14:48:46.290Z,5.07
2022-09-26T14:51:59.371Z,7.95
2022-09-26T14:55:06.161Z,4.22
2022-09-26T14:58:28.438Z,6.65
2022-09-26T15:01:38.193Z,4.70
2022-09-26T15:04:43.882Z,6.03
2022-09-26T15:07:53.411Z,5.75
2022-09-26T15:10:59.175Z,5.50
2022-09-26T15:14:31.022Z,5.22
2022-09-26T15:17:40.966Z,5.78
2022-09-26T15:20:52.023Z,4.35
2022-09-26T15:23:57.318Z,4.03
2022-09-26T15:27:19.403Z,4.88
2022-09-26T15:30:32.053Z,4.68
2022-09-26T15:33:39.093Z,3.67
2022-09-26T15:36:44.969Z,4.30
2022-09-26T15:39:49.649Z,2.85
2022-09-26T15:43:09.136Z,4.90
2022-09-26T15:46:23.429Z,2.80
2022-09-26T15:49:28.631Z,7.05
2022-09-26T15:52:35.167Z,5.93
2022-09-26T15:56:01.601Z,3.08
2022-09-26T15:59:29.376Z,2.63
2022-09-26T16:02:36.489Z,4.15
2022-09-26T16:05:45.493Z,3.65
2022-09-26T16:08:58.046Z,2.90
2022-09-26T16:12:10.381Z,2.85
2022-09-26T16:15:19.568Z,6.00
2022-09-26T16:18:25.563Z,4.25
2022-09-26T16:21:33.772Z,3.17
2022-09-26T16:24:37.882Z,5.05
2022-09-26T16:27:43.008Z,6.78
2022-09-26T16:30:58.553Z,3.10
2022-09-26T16:34:02.970Z,4.15
2022-09-26T16:37:17.293Z,4.45
2022-09-26T16:40:21.569Z,5.03
2022-09-26T16:43:33.658Z,3.65
2022-09-26T16:46:39.105Z,8.60
2022-09-26T16:49:48.369Z,3.15
2022-09-26T16:52:54.199Z,3.22
2022-09-26T16:55:58.734Z,5.45
2022-09-26T16:59:05.264Z,4.00
2022-09-26T17:02:09.821Z,5.15
2022-09-26T17:05:22.750Z,5.15
2022-09-26T17:08:27.626Z,3.58
2022-09-26T17:11:32.195Z,5.75
2022-09-26T17:14:40.756Z,4.07
2022-09-26T17:17:45.685Z,3.78
2022-09-26T17:20:50.261Z,3.47
2022-09-26T17:23:54.299Z,3.40
2022-09-26T17:27:04.674Z,3.38
2022-09-26T17:30:17.524Z,2.03
2022-09-26T17:33:29.696Z,4.63
2022-09-26T17:36:33.974Z,3.33
2022-09-26T17:39:37.979Z,3.95
2022-09-26T17:42:42.148Z,3.45
2022-09-26T17:45:51.702Z,4.68
2022-09-26T17:48:56.383Z,2.50
2022-09-26T17:52:03.423Z,4.78
2022-09-26T17:55:10.811Z,4.93
2022-09-26T17:58:16.160Z,3.15
2022-09-26T18:01:27.824Z,2.00
2022-09-26T18:04:32.957Z,4.13
2022-09-26T18:07:41.406Z,4.97
2022-09-26T18:10:57.370Z,4.28
2022-09-26T18:14:03.452Z,4.07
2022-09-26T18:17:16.233Z,2.85
2022-09-26T18:20:23.538Z,3.53
2022-09-26T18:23:41.705Z,2.47
2022-09-26T18:26:50.382Z,5.70
2022-09-26T18:29:55.351Z,4.18
2022-09-26T18:33:00.155Z,7.05
2022-09-26T18:36:05.172Z,3.60
2022-09-26T18:39:10.471Z,12.10
2022-09-26T18:42:22.422Z,5.88
2022-09-26T18:45:36.808Z,4.28
2022-09-26T18:48:41.678Z,10.10
2022-09-26T18:51:46.303Z,7.57
2022-09-26T18:55:10.224Z,6.40
2022-09-26T18:58:25.241Z,7.10
2022-09-26T19:01:38.035Z,7.85
2022-09-26T19:04:42.626Z,3.55
2022-09-26T19:07:47.426Z,9.02
2022-09-26T19:10:51.599Z,4.18
2022-09-26T19:13:57.943Z,5.05
2022-09-26T19:17:02.158Z,6.30
2022-09-26T19:20:06.738Z,7.95
2022-09-26T19:23:12.122Z,10.80
2022-09-26T19:26:27.376Z,3.75
2022-09-26T19:29:44.718Z,5.28
2022-09-26T19:32:51.791Z,4.05
2022-09-26T19:35:56.176Z,5.78
2022-09-26T19:39:00.310Z,5.78
2022-09-26T19:42:04.424Z,5.95
2022-09-26T19:45:10.632Z,4.63
2022-09-26T19:48:20.908Z,3.92
2022-09-26T19:51:24.998Z,7.82
2022-09-26T19:54:30.001Z,4.70
2022-09-26T19:57:33.989Z,3.35
2022-09-26T20:00:41.514Z,5.50
2022-09-26T20:03:46.047Z,5.47
2022-09-26T20:06:50.286Z,3.80
2022-09-26T20:09:54.774Z,6.45
2022-09-26T20:12:58.608Z,4.85
2022-09-26T20:16:02.872Z,3.72
2022-09-26T20:19:10.305Z,3.58
2022-09-26T20:22:17.567Z,4.00
2022-09-26T20:25:27.854Z,3.30
2022-09-26T20:28:32.228Z,4.28
2022-09-26T20:31:36.539Z,4.13
2022-09-26T20:34:40.480Z,3.65
2022-09-26T20:37:44.779Z,3.83
2022-09-26T20:40:50.513Z,4.43
2022-09-26T20:44:01.783Z,3.22
2022-09-26T20:47:06.509Z,3.45
2022-09-26T20:50:16.249Z,4.00
2022-09-26T20:53:23.280Z,3.03
2022-09-26T20:56:28.323Z,5.10
2022-09-26T20:59:34.961Z,2.60
2022-09-26T21:02:39.749Z,4.75
2022-09-26T21:05:44.454Z,3.25
2022-09-26T21:08:48.383Z,3.83
2022-09-26T21:11:52.508Z,3.35
2022-09-26T21:14:56.671Z,2.85
2022-09-26T21:18:02.144Z,5.97
2022-09-26T21:21:13.048Z,2.72
2022-09-26T21:24:24.739Z,3.10
2022-09-26T21:27:29.283Z,4.38
2022-09-26T21:30:34.076Z,3.17
2022-09-26T21:33:38.811Z,1.98
2022-09-26T21:36:43.219Z,3.35
2022-09-26T21:39:47.429Z,3.03
2022-09-26T21:42:57.235Z,2.47
2022-09-26T21:46:01.226Z,4.47
2022-09-26T21:49:05.203Z,4.32
2022-09-26T21:52:34.273Z,3.05
2022-09-26T21:55:43.197Z,4.05
2022-09-26T21:58:49.000Z,3.00
2022-09-26T22:01:53.021Z,2.38
2022-09-26T22:04:57.500Z,7.32
2022-09-26T22:08:02.011Z,3.22
2022-09-26T22:11:09.037Z,6.18
2022-09-26T22:14:14.068Z,3.15
2022-09-26T22:17:18.630Z,3.55
2022-09-26T22:20:22.758Z,4.57
2022-09-26T22:23:27.111Z,3.55
2022-09-26T22:26:31.622Z,6.20
2022-09-26T22:29:35.615Z,3.53
2022-09-26T22:32:40.150Z,5.68
2022-09-26T22:35:49.223Z,4.85
2022-09-26T22:38:54.774Z,3.63
2022-09-26T22:41:58.835Z,4.30
2022-09-26T22:45:03.187Z,3.28
2022-09-26T22:48:07.676Z,6.03
2022-09-26T22:51:13.516Z,4.07
2022-09-26T22:54:17.721Z,5.72
2022-09-26T22:57:22.014Z,4.50
2022-09-26T23:00:26.140Z,3.08
2022-09-26T23:03:30.038Z,4.93
2022-09-26T23:06:34.217Z,3.28
2022-09-26T23:09:38.605Z,4.43
2022-09-26T23:12:42.542Z,3.22
2022-09-26T23:15:46.564Z,3.28
2022-09-26T23:18:51.682Z,3.45
2022-09-26T23:21:55.777Z,4.00
2022-09-26T23:24:59.849Z,4.90
2022-09-26T23:28:04.305Z,4.18
2022-09-26T23:31:10.942Z,4.45
2022-09-26T23:34:15.089Z,6.85
2022-09-26T23:37:19.166Z,4.35
2022-09-26T23:40:23.321Z,5.47
2022-09-26T23:43:27.688Z,5.78
2022-09-26T23:46:32.170Z,4.70
2022-09-26T23:49:36.129Z,3.10
2022-09-26T23:52:40.560Z,3.05
2022-09-26T23:55:44.805Z,5.30
2022-09-26T23:58:48.990Z,3.78
